Terminal Aerodrome Forecast
Issued by NWS

Home | Current Version | Previous Version | Text Only | Print | Product List | Glossary On
Versions: 1 2 3 4 5 6 7 8 9 10 11 12 13 14 15 16 17 18
000
FTUS42 KJAX 271120
TAFVQQ
TAF
KVQQ 271120Z 2712/2812 VRB02KT P6SM FEW025 WS005/11025KT
     FM271400 12009KT P6SM FEW035 SCT250
     FM272100 12008KT P6SM VCTS BKN040CB BKN150
     FM280600 VRB02KT 2SM BR SCT040
     FM280900 VRB02KT 1SM BR SCT001=

USA.gov is the U.S. government's official web portal to all federal, state and local government web resources and services.